map of MJV home
MJV - Airport
Location
City:  Murcia, Murcia, Spain
Name:San Javier Airport
ICAO:LELC
IATA:MJV

Details
Type:Airport (Aerodrome, Airfield)
Use:Public/Civil, Military
Latitude:3746'30"N (37.774972)
Longitude:048'45"W (-0.812388)
Datum:WGS 1984
Elevation:11 ft (3 m)
Variation:0.24E (WMM2015 magnetic declination)
0.11 annual change
Runways:3
Longest:7546 × 197 ft (2300 × 60 m), paved

Time
Time Zone:UTC+1 (DST+2)
Local Time:

Weather
METAR:LELC 220430Z AUTO 29005KT 250V330 9999 NCD 07/M02 Q1018
TAF:LELC 212300Z 2200/2224 31011KT 9999 FEW040 TX16/2214Z TN05/2207Z PROB40
TEMPO 2208/2215 30015G25KT

Related Locations
Nearby:
Farthest:GIS: 12346 mi / 19869 km
Gisborne, GIS, NZ

Find:

   beyond  
but within

Other Information
Maps:
NOTAMs:
Links:
Sources:

  
  • flag of Spain
  • flag of Murcia
  

Sectional Chart

Flight Planning
at skyvector.com

Satellite Image

Google Maps Satellite view

 

Copyright © 2004-2019 Karl L. Swartz. All rights reserved.
The Great Circle Mapper name and logo are trademarks of the Great Circle Mapper.
All other trademarks mentioned herein belong to their respective owners.
Please see credits for attibutions and further copyright information.

  Follow gcmap on Facebook Follow gcmap on Twitter Follow gcmap on Google+ GCmap on LinkedIn

hCard Microformat

Geo Microformat